Terminal Aerodrome Forecast
Issued by NWS Quad Cities IA IL

Home | Current Version | Previous Version | Text Only | Print | Product List | Glossary Off
Versions: 1 2 3 4 5 6 7 8 9 10 11 12 13 14 15 16 17 18 19 20

765
FTUS43 KDVN 271407 AAA
TAFDBQ
TAF AMD
KDBQ 271407Z 2714/2812 VRB03KT P6SM BKN007
     FM271600 13006KT P6SM BKN025
     FM271800 13007KT P6SM BKN050
     FM280100 01010KT 6SM BR BKN030
     FM280900 34006KT 4SM BR VCSH BKN015=

USA.gov is the U.S. government's official web portal to all federal, state and local government web resources and services.